createdAt,value
2018-06-27T00:00:06.498Z,31.90
2018-06-27T00:01:06.505Z,32.80
2018-06-27T00:02:06.480Z,27.40
2018-06-27T00:03:06.437Z,31.80
2018-06-27T00:04:06.415Z,34.30
2018-06-27T00:05:06.393Z,33.60
2018-06-27T00:06:06.397Z,34.30
2018-06-27T00:07:06.351Z,28.00
2018-06-27T00:08:06.366Z,33.70
2018-06-27T00:09:06.310Z,30.70
2018-06-27T00:10:06.282Z,32.10
2018-06-27T00:11:06.276Z,29.90
2018-06-27T00:12:06.247Z,25.40
2018-06-27T00:13:06.221Z,29.30
2018-06-27T00:14:06.207Z,28.10
2018-06-27T00:15:06.176Z,34.00
2018-06-27T00:16:06.186Z,32.70
2018-06-27T00:17:06.164Z,31.50
2018-06-27T00:18:06.121Z,28.80
2018-06-27T00:19:06.094Z,28.40
2018-06-27T00:20:06.072Z,33.70
2018-06-27T00:21:06.079Z,25.80
2018-06-27T00:22:06.033Z,32.60
2018-06-27T00:23:06.021Z,29.30
2018-06-27T00:24:05.985Z,28.00
2018-06-27T00:25:05.964Z,34.90
2018-06-27T00:26:05.971Z,29.80
2018-06-27T00:27:05.935Z,30.50
2018-06-27T00:28:05.925Z,28.90
2018-06-27T00:29:05.883Z,34.10
2018-06-27T00:30:05.883Z,21.50
2018-06-27T00:31:05.862Z,26.30
2018-06-27T00:32:05.816Z,28.30
2018-06-27T00:33:05.790Z,22.80
2018-06-27T00:34:05.775Z,24.80
2018-06-27T00:35:05.778Z,28.10
2018-06-27T00:36:05.731Z,28.50
2018-06-27T00:37:05.704Z,30.30
2018-06-27T00:38:05.712Z,27.90
2018-06-27T00:39:05.696Z,29.40
2018-06-27T00:40:05.667Z,27.50
2018-06-27T00:41:05.632Z,31.10
2018-06-27T00:42:05.601Z,28.60
2018-06-27T00:43:05.577Z,45.10
2018-06-27T00:44:05.558Z,47.20
2018-06-27T00:45:05.533Z,41.50
2018-06-27T00:46:05.539Z,31.20
2018-06-27T00:47:05.524Z,32.20
2018-06-27T00:48:05.479Z,29.90
2018-06-27T00:49:05.459Z,32.10
2018-06-27T00:50:05.439Z,36.70
2018-06-27T00:51:05.413Z,34.20
2018-06-27T00:52:05.397Z,32.80
2018-06-27T00:53:05.386Z,45.20
2018-06-27T00:54:05.368Z,45.80
2018-06-27T00:55:05.321Z,41.20
2018-06-27T00:56:05.306Z,36.00
2018-06-27T00:57:05.280Z,34.10
2018-06-27T00:58:05.253Z,37.30
2018-06-27T00:59:05.232Z,32.70
2018-06-27T01:00:05.212Z,33.90
2018-06-27T01:01:05.205Z,38.20
2018-06-27T01:02:05.188Z,34.90
2018-06-27T01:03:05.149Z,35.20
2018-06-27T01:04:05.126Z,39.40
2018-06-27T01:05:05.108Z,39.50
2018-06-27T01:06:05.078Z,42.30
2018-06-27T01:07:05.062Z,54.30
2018-06-27T01:08:05.067Z,37.50
2018-06-27T01:09:05.048Z,36.40
2018-06-27T01:10:05.001Z,41.80
2018-06-27T01:11:04.975Z,35.70
2018-06-27T01:12:04.982Z,43.20
2018-06-27T01:13:04.931Z,32.30
2018-06-27T01:14:04.919Z,36.00
2018-06-27T01:15:04.893Z,30.40
2018-06-27T01:16:04.868Z,40.40
2018-06-27T01:17:04.864Z,37.70
2018-06-27T01:18:04.830Z,36.40
2018-06-27T01:19:04.833Z,35.80
2018-06-27T01:20:04.847Z,43.80
2018-06-27T01:21:04.789Z,38.80
2018-06-27T01:22:04.767Z,40.90
2018-06-27T01:23:04.721Z,42.90
2018-06-27T01:24:04.723Z,49.40
2018-06-27T01:25:04.673Z,43.00
2018-06-27T01:26:04.653Z,39.60
2018-06-27T01:27:04.658Z,50.70
2018-06-27T01:28:04.640Z,39.20
2018-06-27T01:29:04.590Z,45.30
2018-06-27T01:30:04.592Z,35.80
2018-06-27T01:31:04.547Z,39.80
2018-06-27T01:32:04.524Z,37.80
2018-06-27T01:33:04.501Z,39.00
2018-06-27T01:34:04.491Z,41.30
2018-06-27T01:35:04.467Z,35.50
2018-06-27T01:36:04.433Z,40.50
2018-06-27T01:37:04.415Z,36.50
2018-06-27T01:38:04.393Z,39.60
2018-06-27T01:39:04.371Z,43.20
2018-06-27T01:40:04.377Z,38.10
2018-06-27T01:41:04.355Z,36.40
2018-06-27T01:42:04.338Z,36.90
2018-06-27T01:43:04.287Z,43.20
2018-06-27T01:44:04.282Z,49.50
2018-06-27T01:45:04.240Z,48.90
2018-06-27T01:46:04.250Z,47.30
2018-06-27T01:47:04.200Z,52.60
2018-06-27T01:48:04.176Z,44.20
2018-06-27T01:49:04.151Z,44.20
2018-06-27T01:50:04.137Z,46.20
2018-06-27T01:51:04.133Z,40.70
2018-06-27T01:52:04.084Z,43.00
2018-06-27T01:53:04.061Z,44.00
2018-06-27T01:54:04.068Z,40.90
2018-06-27T01:55:04.048Z,44.20
2018-06-27T01:56:04.026Z,42.50
2018-06-27T01:57:03.976Z,45.10
2018-06-27T01:58:03.982Z,51.00
2018-06-27T01:59:03.989Z,57.40
2018-06-27T02:00:03.938Z,42.80
2018-06-27T02:01:03.892Z,48.50
2018-06-27T02:02:03.895Z,51.80
2018-06-27T02:03:03.876Z,43.30
2018-06-27T02:04:03.833Z,45.60
2018-06-27T02:05:03.828Z,54.70
2018-06-27T02:06:03.780Z,48.00
2018-06-27T02:07:03.768Z,45.70
2018-06-27T02:08:03.734Z,46.00
2018-06-27T02:09:03.710Z,46.50
2018-06-27T02:10:03.698Z,45.60
2018-06-27T02:11:03.699Z,58.00
2018-06-27T02:12:03.644Z,48.40
2018-06-27T02:13:03.626Z,46.90
2018-06-27T02:14:03.607Z,49.70
2018-06-27T02:15:03.610Z,53.60
2018-06-27T02:16:03.559Z,44.70
2018-06-27T02:17:03.551Z,49.90
2018-06-27T02:18:03.541Z,46.90
2018-06-27T02:19:03.517Z,41.60
2018-06-27T02:20:03.477Z,47.30
2018-06-27T02:21:03.477Z,40.10
2018-06-27T02:22:03.425Z,44.60
2018-06-27T02:23:03.404Z,43.70
2018-06-27T02:24:03.411Z,49.20
2018-06-27T02:25:03.371Z,44.70
2018-06-27T02:26:03.339Z,59.70
2018-06-27T02:27:03.347Z,57.90
2018-06-27T02:28:03.295Z,57.00
2018-06-27T02:29:03.283Z,55.90
2018-06-27T02:30:03.255Z,61.30
2018-06-27T02:31:03.232Z,59.70
2018-06-27T02:32:03.224Z,64.50
2018-06-27T02:33:03.211Z,59.50
2018-06-27T02:34:03.188Z,59.40
2018-06-27T02:35:03.153Z,62.30
2018-06-27T02:36:03.118Z,65.00
2018-06-27T02:37:03.098Z,59.80
2018-06-27T02:38:03.089Z,60.70
2018-06-27T02:39:03.077Z,66.00
2018-06-27T02:40:03.041Z,61.90
2018-06-27T02:41:03.012Z,66.30
2018-06-27T02:42:03.007Z,70.00
2018-06-27T02:43:02.964Z,64.70
2018-06-27T02:44:02.943Z,67.40
2018-06-27T02:45:02.927Z,63.50
2018-06-27T02:46:02.895Z,66.50
2018-06-27T02:47:02.902Z,64.50
2018-06-27T02:48:02.878Z,65.00
2018-06-27T02:49:02.857Z,61.10
2018-06-27T02:50:02.835Z,57.00
2018-06-27T02:51:02.815Z,65.20
2018-06-27T02:52:02.790Z,63.40
2018-06-27T02:53:02.772Z,54.40
2018-06-27T02:54:02.749Z,47.50
2018-06-27T02:55:02.698Z,46.60
2018-06-27T02:56:02.702Z,54.50
2018-06-27T02:57:02.679Z,53.60
2018-06-27T02:58:02.635Z,60.70
2018-06-27T02:59:02.619Z,54.00
2018-06-27T03:00:02.586Z,59.50
2018-06-27T03:01:02.564Z,63.50
2018-06-27T03:02:02.551Z,59.70
2018-06-27T03:03:02.522Z,64.40
2018-06-27T03:04:02.502Z,70.40
2018-06-27T03:05:02.475Z,67.10
2018-06-27T03:06:02.455Z,78.00
2018-06-27T03:07:02.430Z,75.00
2018-06-27T03:08:02.409Z,69.70
2018-06-27T03:09:02.410Z,69.20
2018-06-27T03:10:02.363Z,67.90
2018-06-27T03:11:02.369Z,70.40
2018-06-27T03:12:02.318Z,70.60
2018-06-27T03:13:02.297Z,68.60
2018-06-27T03:14:02.301Z,67.50
2018-06-27T03:15:02.254Z,69.20
2018-06-27T03:16:02.223Z,71.70
2018-06-27T03:17:02.204Z,71.10
2018-06-27T03:18:02.181Z,72.50
2018-06-27T03:19:02.173Z,78.60
2018-06-27T03:20:02.148Z,69.10
2018-06-27T03:21:02.112Z,67.10
2018-06-27T03:22:02.103Z,66.80
2018-06-27T03:23:02.082Z,73.90
2018-06-27T03:24:02.047Z,70.20
2018-06-27T03:25:02.036Z,71.30
2018-06-27T03:26:02.000Z,72.20
2018-06-27T03:27:01.981Z,73.00
2018-06-27T03:28:01.952Z,66.60
2018-06-27T03:29:01.958Z,72.90
2018-06-27T03:30:01.938Z,79.80
2018-06-27T03:31:01.884Z,69.50
2018-06-27T03:32:01.866Z,74.40
2018-06-27T03:33:01.857Z,73.00
2018-06-27T03:34:01.821Z,75.10
2018-06-27T03:35:01.798Z,75.40
2018-06-27T03:36:01.799Z,67.60
2018-06-27T03:37:01.777Z,76.80
2018-06-27T03:38:01.753Z,80.50
2018-06-27T03:39:01.706Z,75.80
2018-06-27T03:40:01.683Z,74.10
2018-06-27T03:41:01.664Z,72.60
2018-06-27T03:42:01.662Z,75.10
2018-06-27T03:43:01.613Z,69.80
2018-06-27T03:44:01.590Z,67.20
2018-06-27T03:45:01.572Z,72.50
2018-06-27T03:46:01.562Z,73.60
2018-06-27T03:47:01.525Z,73.40
2018-06-27T03:48:01.528Z,64.70
2018-06-27T03:49:01.477Z,72.20
2018-06-27T03:50:01.457Z,77.10
2018-06-27T03:51:01.444Z,67.90
2018-06-27T03:52:01.419Z,64.20
2018-06-27T03:53:01.388Z,63.80
2018-06-27T03:54:01.380Z,66.80
2018-06-27T03:55:01.345Z,60.50
2018-06-27T03:56:01.337Z,67.30
2018-06-27T03:57:01.318Z,59.10
2018-06-27T03:58:01.273Z,64.10
2018-06-27T03:59:01.297Z,77.20
2018-06-27T04:00:01.256Z,70.40
2018-06-27T04:01:01.205Z,67.80
2018-06-27T04:02:01.186Z,65.90
2018-06-27T04:03:01.164Z,60.80
2018-06-27T04:04:01.138Z,72.20
2018-06-27T04:05:01.140Z,69.50
2018-06-27T04:06:01.101Z,61.40
2018-06-27T04:07:01.073Z,69.10
2018-06-27T04:08:01.076Z,74.00
2018-06-27T04:09:01.036Z,69.60
2018-06-27T04:10:01.029Z,69.90
2018-06-27T04:11:01.005Z,67.80
2018-06-27T04:12:00.956Z,66.20
2018-06-27T04:13:34.420Z,73.40
2018-06-27T04:14:00.916Z,68.20
2018-06-27T04:15:00.899Z,66.80
2018-06-27T04:16:00.868Z,69.00
2018-06-27T04:17:00.842Z,65.50
2018-06-27T04:18:00.847Z,65.70
2018-06-27T04:19:00.823Z,61.80
2018-06-27T04:20:00.769Z,62.90
2018-06-27T04:21:00.752Z,67.20
2018-06-27T04:22:00.764Z,64.70
2018-06-27T04:23:00.732Z,71.00
2018-06-27T04:24:00.711Z,65.70
2018-06-27T04:25:00.669Z,76.50
2018-06-27T04:26:00.665Z,63.90
2018-06-27T04:27:00.641Z,68.10
2018-06-27T04:28:00.619Z,65.80
2018-06-27T04:29:00.595Z,71.90
2018-06-27T04:30:00.550Z,70.50
2018-06-27T04:31:00.553Z,70.50
2018-06-27T04:32:00.542Z,76.30
2018-06-27T04:33:00.478Z,69.80
2018-06-27T04:34:00.465Z,79.10
2018-06-27T04:35:00.432Z,69.40
2018-06-27T04:36:00.422Z,73.80
2018-06-27T04:37:00.395Z,69.40
2018-06-27T04:38:00.365Z,74.40
2018-06-27T04:39:00.370Z,67.90
2018-06-27T04:40:00.326Z,72.20
2018-06-27T04:41:00.297Z,71.60
2018-06-27T04:42:00.300Z,71.30
2018-06-27T04:43:00.256Z,68.00
2018-06-27T04:44:00.222Z,79.00
2018-06-27T04:45:00.246Z,78.10
2018-06-27T04:46:00.209Z,85.80
2018-06-27T04:47:00.183Z,93.80
2018-06-27T04:48:00.147Z,92.70
2018-06-27T04:49:00.139Z,77.70
2018-06-27T04:50:00.116Z,94.00
2018-06-27T04:51:00.080Z,78.20
2018-06-27T04:52:00.043Z,75.00
2018-06-27T04:53:00.047Z,82.40
2018-06-27T04:54:00.015Z,79.20
2018-06-27T04:55:00.071Z,80.30
2018-06-27T04:55:59.976Z,72.60
2018-06-27T04:56:59.953Z,74.30
2018-06-27T04:57:59.929Z,82.10
2018-06-27T04:58:59.876Z,78.40
2018-06-27T04:59:59.859Z,87.70
2018-06-27T05:00:59.859Z,77.90
2018-06-27T05:01:59.837Z,82.70
2018-06-27T05:02:59.817Z,81.40
2018-06-27T05:03:59.792Z,82.60
2018-06-27T05:04:59.741Z,81.50
2018-06-27T05:05:59.718Z,83.10
2018-06-27T05:06:59.721Z,79.40
2018-06-27T05:07:59.700Z,74.20
2018-06-27T05:08:59.677Z,81.80
2018-06-27T05:09:59.659Z,83.00
2018-06-27T05:10:59.605Z,81.80
2018-06-27T05:11:59.581Z,76.00
2018-06-27T05:12:59.582Z,83.80
2018-06-27T05:13:59.564Z,79.10
2018-06-27T05:14:59.513Z,82.60
2018-06-27T05:15:59.535Z,75.50
2018-06-27T05:16:59.492Z,79.90
2018-06-27T05:17:59.472Z,82.90
2018-06-27T05:18:59.417Z,77.40
2018-06-27T05:19:59.424Z,86.90
2018-06-27T05:20:59.387Z,86.00
2018-06-27T05:21:59.353Z,79.60
2018-06-27T05:22:59.321Z,85.10
2018-06-27T05:23:59.329Z,78.60
2018-06-27T05:24:59.295Z,71.50
2018-06-27T05:25:59.284Z,77.90
2018-06-27T05:26:59.263Z,94.00
2018-06-27T05:27:59.238Z,80.60
2018-06-27T05:28:59.189Z,68.50
2018-06-27T05:29:59.175Z,85.70
2018-06-27T05:30:59.144Z,80.40
2018-06-27T05:31:59.145Z,78.60
2018-06-27T05:32:59.094Z,79.00
2018-06-27T05:33:59.123Z,83.40
2018-06-27T05:34:59.053Z,76.60
2018-06-27T05:35:59.035Z,84.40
2018-06-27T05:36:59.035Z,76.40
2018-06-27T05:37:59.006Z,77.00
2018-06-27T05:38:58.958Z,78.60
2018-06-27T05:39:58.949Z,70.30
2018-06-27T05:40:58.940Z,72.50
2018-06-27T05:41:58.892Z,82.50
2018-06-27T05:42:58.866Z,88.20
2018-06-27T05:43:58.852Z,79.90
2018-06-27T05:44:58.844Z,80.20
2018-06-27T05:45:58.796Z,90.60
2018-06-27T05:46:58.785Z,86.90
2018-06-27T05:47:58.752Z,85.50
2018-06-27T05:48:58.735Z,81.00
2018-06-27T05:49:58.707Z,83.00
2018-06-27T05:50:58.679Z,84.10
2018-06-27T05:51:58.657Z,92.00
2018-06-27T05:52:58.636Z,86.10
2018-06-27T05:53:58.609Z,86.30
2018-06-27T05:54:58.617Z,81.00
2018-06-27T05:55:58.567Z,79.70
2018-06-27T05:56:58.567Z,88.50
2018-06-27T05:57:58.548Z,97.70
2018-06-27T05:58:58.496Z,81.80
2018-06-27T05:59:58.499Z,75.70
2018-06-27T06:00:58.451Z,85.60
2018-06-27T06:01:58.455Z,75.10
2018-06-27T06:02:58.431Z,78.40
2018-06-27T06:03:58.409Z,81.20
2018-06-27T06:04:58.383Z,84.00
2018-06-27T06:05:58.346Z,80.50
2018-06-27T06:06:58.337Z,79.30
2018-06-27T06:07:58.319Z,83.70
2018-06-27T06:08:58.291Z,78.60
2018-06-27T06:09:58.271Z,76.20
2018-06-27T06:10:58.217Z,83.90
2018-06-27T06:11:58.195Z,77.70
2018-06-27T06:12:58.198Z,74.50
2018-06-27T06:13:58.149Z,74.00
2018-06-27T06:14:58.135Z,75.60
2018-06-27T06:15:58.108Z,80.20
2018-06-27T06:16:58.081Z,80.40
2018-06-27T06:17:58.058Z,72.70
2018-06-27T06:18:58.035Z,78.50
2018-06-27T06:19:58.012Z,80.80
2018-06-27T06:20:57.991Z,73.30
2018-06-27T06:21:57.968Z,78.70
2018-06-27T06:22:57.946Z,74.30
2018-06-27T06:23:57.921Z,78.10
2018-06-27T06:24:57.921Z,71.90
2018-06-27T06:25:57.872Z,76.80
2018-06-27T06:26:57.857Z,80.80
2018-06-27T06:27:57.825Z,74.80
2018-06-27T06:28:57.829Z,75.60
2018-06-27T06:29:57.805Z,76.00
2018-06-27T06:30:57.759Z,73.80
2018-06-27T06:31:57.745Z,75.00
2018-06-27T06:32:57.737Z,73.60
2018-06-27T06:33:57.688Z,77.30
2018-06-27T06:34:57.665Z,75.20
2018-06-27T06:35:57.641Z,67.50
2018-06-27T06:36:57.618Z,78.30
2018-06-27T06:37:57.595Z,68.20
2018-06-27T06:38:57.577Z,67.20
2018-06-27T06:39:57.574Z,68.80
2018-06-27T06:40:57.527Z,75.70
2018-06-27T06:41:57.515Z,68.10
2018-06-27T06:42:57.480Z,73.20
2018-06-27T06:43:57.458Z,70.70
2018-06-27T06:44:57.461Z,77.90
2018-06-27T06:45:57.414Z,68.10
2018-06-27T06:46:57.412Z,70.80
2018-06-27T06:47:57.393Z,71.80
2018-06-27T06:48:57.343Z,81.50
2018-06-27T06:49:57.343Z,68.80
2018-06-27T06:50:57.319Z,64.00
2018-06-27T06:51:57.313Z,69.90
2018-06-27T06:52:57.248Z,75.40
2018-06-27T06:53:57.222Z,71.10
2018-06-27T06:54:57.200Z,73.60
2018-06-27T06:55:57.190Z,66.00
2018-06-27T06:56:57.155Z,63.60
2018-06-27T06:57:57.161Z,69.70
2018-06-27T06:58:57.109Z,75.50
2018-06-27T06:59:57.108Z,66.70
2018-06-27T07:00:57.060Z,69.10
2018-06-27T07:01:57.064Z,64.90
2018-06-27T07:02:57.014Z,61.70
2018-06-27T07:03:56.993Z,61.80
2018-06-27T07:04:57.049Z,60.10
2018-06-27T07:05:56.973Z,59.10
2018-06-27T07:06:56.923Z,60.30
2018-06-27T07:07:56.921Z,58.70
2018-06-27T07:08:56.875Z,55.90
2018-06-27T07:09:56.858Z,55.20
2018-06-27T07:10:56.882Z,59.90
2018-06-27T07:11:56.813Z,54.90
2018-06-27T07:12:56.788Z,52.20
2018-06-27T07:13:56.758Z,56.60
2018-06-27T07:14:56.740Z,51.40
2018-06-27T07:15:56.724Z,54.30
2018-06-27T07:16:56.710Z,52.60
2018-06-27T07:17:56.675Z,53.90
2018-06-27T07:18:56.651Z,58.40
2018-06-27T07:19:56.617Z,55.10
2018-06-27T07:20:56.591Z,56.60
2018-06-27T07:21:56.569Z,55.20
2018-06-27T07:22:56.548Z,49.10
2018-06-27T07:23:56.529Z,58.90
2018-06-27T07:24:56.515Z,50.80
2018-06-27T07:25:56.477Z,53.70
2018-06-27T07:26:56.455Z,48.50
2018-06-27T07:27:56.426Z,53.90
2018-06-27T07:28:56.430Z,50.30
2018-06-27T07:29:56.414Z,49.40
2018-06-27T07:30:56.383Z,50.60
2018-06-27T07:31:56.351Z,43.90
2018-06-27T07:32:56.336Z,48.60
2018-06-27T07:33:56.288Z,46.40
2018-06-27T07:34:56.291Z,47.20
2018-06-27T07:35:56.281Z,44.00
2018-06-27T07:36:56.217Z,48.00
2018-06-27T07:37:56.208Z,48.80
2018-06-27T07:38:56.186Z,48.20
2018-06-27T07:39:56.147Z,48.70
2018-06-27T07:40:56.131Z,49.20
2018-06-27T07:41:56.131Z,47.20
2018-06-27T07:42:56.101Z,49.60
2018-06-27T07:43:56.055Z,50.40
2018-06-27T07:44:56.026Z,52.90
2018-06-27T07:45:56.008Z,58.80
2018-06-27T07:46:56.009Z,59.70
2018-06-27T07:47:55.961Z,48.40
2018-06-27T07:48:55.963Z,55.30
2018-06-27T07:49:55.974Z,61.20
2018-06-27T07:50:55.915Z,58.70
2018-06-27T07:51:55.863Z,58.60
2018-06-27T07:52:55.840Z,56.40
2018-06-27T07:53:55.844Z,55.10
2018-06-27T07:54:55.791Z,58.90
2018-06-27T07:55:55.770Z,58.90
2018-06-27T07:56:55.772Z,68.40
2018-06-27T07:57:55.748Z,71.80
2018-06-27T07:58:55.703Z,69.30
2018-06-27T07:59:55.685Z,65.60
2018-06-27T08:00:55.663Z,74.70
2018-06-27T08:01:55.656Z,75.90
2018-06-27T08:02:55.630Z,65.80
2018-06-27T08:03:55.590Z,67.90
2018-06-27T08:04:55.555Z,69.30
2018-06-27T08:05:55.568Z,78.60
2018-06-27T08:06:55.513Z,67.30
2018-06-27T08:07:55.511Z,66.10
2018-06-27T08:08:55.490Z,63.50
2018-06-27T08:09:55.449Z,60.10
2018-06-27T08:10:55.427Z,61.90
2018-06-27T08:11:55.393Z,63.20
2018-06-27T08:12:55.378Z,62.30
2018-06-27T08:13:55.347Z,65.60
2018-06-27T08:14:55.345Z,64.80
2018-06-27T08:15:55.297Z,62.40
2018-06-27T08:16:55.277Z,58.30
2018-06-27T08:17:55.309Z,60.40
2018-06-27T08:18:55.256Z,60.30
2018-06-27T08:19:55.229Z,60.00
2018-06-27T08:20:55.204Z,62.30
2018-06-27T08:21:55.157Z,66.60
2018-06-27T08:22:55.144Z,62.10
2018-06-27T08:23:55.109Z,64.40
2018-06-27T08:24:55.108Z,71.90
2018-06-27T08:25:55.129Z,70.50
2018-06-27T08:26:55.066Z,69.20
2018-06-27T08:27:55.012Z,66.40
2018-06-27T08:28:54.991Z,65.20
2018-06-27T08:29:54.962Z,70.50
2018-06-27T08:30:54.942Z,63.10
2018-06-27T08:31:54.914Z,63.00
2018-06-27T08:32:54.922Z,71.60
2018-06-27T08:33:54.872Z,68.90
2018-06-27T08:34:54.858Z,69.90
2018-06-27T08:35:54.825Z,71.20
2018-06-27T08:36:54.825Z,77.40
2018-06-27T08:37:54.780Z,71.90
2018-06-27T08:38:54.754Z,72.90
2018-06-27T08:39:54.754Z,75.90
2018-06-27T08:40:54.707Z,78.70
2018-06-27T08:41:54.696Z,65.80
2018-06-27T08:42:54.658Z,65.60
2018-06-27T08:43:54.637Z,78.60
2018-06-27T08:44:54.639Z,66.40
2018-06-27T08:45:54.588Z,70.70
2018-06-27T08:46:54.561Z,69.00
2018-06-27T08:47:54.543Z,61.70
2018-06-27T08:48:54.543Z,69.00
2018-06-27T08:49:54.509Z,72.30
2018-06-27T08:50:54.465Z,67.00
2018-06-27T08:51:54.472Z,64.50
2018-06-27T08:52:54.424Z,66.30
2018-06-27T08:53:54.399Z,67.80
2018-06-27T08:54:54.404Z,64.00
2018-06-27T08:55:54.365Z,63.00
2018-06-27T08:56:54.332Z,60.60
2018-06-27T08:57:54.307Z,64.30
2018-06-27T08:58:54.450Z,69.00
2018-06-27T08:59:54.261Z,60.60
2018-06-27T09:00:54.263Z,62.20
2018-06-27T09:01:54.229Z,63.30
2018-06-27T09:02:54.217Z,65.60
2018-06-27T09:03:54.188Z,64.50
2018-06-27T09:04:54.166Z,66.10
2018-06-27T09:05:54.116Z,62.80
2018-06-27T09:06:54.097Z,66.30
2018-06-27T09:07:54.096Z,63.70
2018-06-27T09:08:54.072Z,63.50
2018-06-27T09:09:54.048Z,64.40
2018-06-27T09:10:54.024Z,57.10
2018-06-27T09:11:53.984Z,58.60
2018-06-27T09:12:53.976Z,62.10
2018-06-27T09:13:53.927Z,64.60
2018-06-27T09:14:53.930Z,59.60
2018-06-27T09:15:53.876Z,66.50
2018-06-27T09:16:53.883Z,67.50
2018-06-27T09:17:53.848Z,69.60
2018-06-27T09:18:53.827Z,70.50
2018-06-27T09:19:53.785Z,68.80
2018-06-27T09:20:53.789Z,72.70
2018-06-27T09:21:53.766Z,64.10
2018-06-27T09:22:53.743Z,69.50
2018-06-27T09:23:53.701Z,74.70
2018-06-27T09:24:53.664Z,78.20
2018-06-27T09:25:53.657Z,74.10
2018-06-27T09:26:53.629Z,74.30
2018-06-27T09:27:53.593Z,82.30
2018-06-27T09:28:53.581Z,75.00
2018-06-27T09:29:53.551Z,70.40
2018-06-27T09:30:53.539Z,62.70
2018-06-27T09:31:53.520Z,64.00
2018-06-27T09:32:53.478Z,62.10
2018-06-27T09:33:53.456Z,67.60
2018-06-27T09:34:53.432Z,67.50
2018-06-27T09:35:53.434Z,70.10
2018-06-27T09:36:53.383Z,73.00
2018-06-27T09:37:53.361Z,69.60
2018-06-27T09:38:53.350Z,71.20
2018-06-27T09:39:53.314Z,69.90
2018-06-27T09:40:53.288Z,72.70
2018-06-27T09:41:53.355Z,73.40
2018-06-27T09:42:53.268Z,78.80
2018-06-27T09:43:53.218Z,83.00
2018-06-27T09:44:53.206Z,85.20
2018-06-27T09:45:53.199Z,76.00
2018-06-27T09:46:53.148Z,71.40
2018-06-27T09:47:53.118Z,77.60
2018-06-27T09:48:53.111Z,78.70
2018-06-27T09:49:53.080Z,78.80
2018-06-27T09:50:53.081Z,75.60
2018-06-27T09:51:53.036Z,73.80
2018-06-27T09:52:53.033Z,80.20
2018-06-27T09:53:52.982Z,71.30
2018-06-27T09:54:52.961Z,68.20
2018-06-27T09:55:52.934Z,74.60
2018-06-27T09:56:52.992Z,70.40
2018-06-27T09:57:52.914Z,73.40
2018-06-27T09:58:52.868Z,69.90
2018-06-27T09:59:52.839Z,70.20
2018-06-27T10:00:52.832Z,65.20
2018-06-27T10:01:52.817Z,66.10
2018-06-27T10:02:52.796Z,67.10
2018-06-27T10:03:52.775Z,62.50
2018-06-27T10:04:52.719Z,65.00
2018-06-27T10:05:52.699Z,58.70
2018-06-27T10:06:52.678Z,65.80
2018-06-27T10:07:52.648Z,54.40
2018-06-27T10:08:52.624Z,54.70
2018-06-27T10:09:52.618Z,62.90
2018-06-27T10:10:52.599Z,60.50
2018-06-27T10:11:52.560Z,58.20
2018-06-27T10:12:52.535Z,56.50
2018-06-27T10:13:52.515Z,56.30
2018-06-27T10:14:52.517Z,57.60
2018-06-27T10:15:52.479Z,58.20
2018-06-27T10:16:52.520Z,57.20
2018-06-27T10:17:52.420Z,61.40
2018-06-27T10:18:52.406Z,55.80
2018-06-27T10:19:52.372Z,53.50
2018-06-27T10:20:52.352Z,53.80
2018-06-27T10:21:52.330Z,65.60
2018-06-27T10:22:52.331Z,54.20
2018-06-27T10:23:52.283Z,54.30
2018-06-27T10:24:52.274Z,57.70
2018-06-27T10:25:52.265Z,57.20
2018-06-27T10:26:52.240Z,54.90
2018-06-27T10:27:52.192Z,57.00
2018-06-27T10:28:52.196Z,60.30
2018-06-27T10:29:52.150Z,58.20
2018-06-27T10:30:52.150Z,61.10
2018-06-27T10:31:52.115Z,59.00
2018-06-27T10:32:52.088Z,61.00
2018-06-27T10:33:52.086Z,57.00
2018-06-27T10:34:52.063Z,55.60
2018-06-27T10:35:52.016Z,59.00
2018-06-27T10:36:52.021Z,55.40
2018-06-27T10:37:51.997Z,57.70
2018-06-27T10:38:51.972Z,59.10
2018-06-27T10:39:51.921Z,64.70
2018-06-27T10:40:51.904Z,63.60
2018-06-27T10:41:51.912Z,62.30
2018-06-27T10:42:51.884Z,61.20
2018-06-27T10:43:51.832Z,60.30
2018-06-27T10:44:51.817Z,61.30
2018-06-27T10:45:51.818Z,59.80
2018-06-27T10:46:51.772Z,56.50
2018-06-27T10:47:51.776Z,63.30
2018-06-27T10:48:51.750Z,58.00
2018-06-27T10:49:51.731Z,66.90
2018-06-27T10:50:51.684Z,63.90
2018-06-27T10:51:51.685Z,58.80
2018-06-27T10:52:51.644Z,62.40
2018-06-27T10:53:51.617Z,63.30
2018-06-27T10:54:51.607Z,62.60
2018-06-27T10:55:51.581Z,60.50
2018-06-27T10:56:51.568Z,61.50
2018-06-27T10:57:51.539Z,62.50
2018-06-27T10:58:51.519Z,59.60
2018-06-27T10:59:51.502Z,63.90
2018-06-27T11:00:51.467Z,57.70
2018-06-27T11:01:51.460Z,57.40
2018-06-27T11:02:51.438Z,55.50
2018-06-27T11:03:51.430Z,62.30
2018-06-27T11:04:51.387Z,59.20
2018-06-27T11:05:51.390Z,59.10
2018-06-27T11:06:51.372Z,57.10
2018-06-27T11:07:51.337Z,52.30
2018-06-27T11:08:51.317Z,51.00
2018-06-27T11:09:51.283Z,50.70
2018-06-27T11:10:51.289Z,49.50
2018-06-27T11:11:51.241Z,46.80
2018-06-27T11:12:51.223Z,49.50
2018-06-27T11:13:51.226Z,43.90
2018-06-27T11:14:51.206Z,42.70
2018-06-27T11:15:51.169Z,44.00
2018-06-27T11:16:51.164Z,48.00
2018-06-27T11:17:51.137Z,47.60
2018-06-27T11:18:51.102Z,48.50
2018-06-27T11:19:51.105Z,43.40
2018-06-27T11:20:51.088Z,45.10
2018-06-27T11:21:51.041Z,44.70
2018-06-27T11:22:51.020Z,48.80
2018-06-27T11:23:50.998Z,49.70
2018-06-27T11:24:51.003Z,47.60
2018-06-27T11:25:50.954Z,55.90
2018-06-27T11:26:50.942Z,47.20
2018-06-27T11:27:50.928Z,54.80
2018-06-27T11:28:50.897Z,48.20
2018-06-27T11:29:50.902Z,50.90
2018-06-27T11:30:51.067Z,48.30
2018-06-27T11:31:50.981Z,45.50
2018-06-27T11:32:50.848Z,46.80
2018-06-27T11:33:50.801Z,46.20
2018-06-27T11:34:50.780Z,50.70
2018-06-27T11:35:50.756Z,43.50
2018-06-27T11:36:50.735Z,45.80
2018-06-27T11:37:50.722Z,49.60
2018-06-27T11:38:50.862Z,48.10
2018-06-27T11:39:50.658Z,49.80
2018-06-27T11:40:50.640Z,45.30
2018-06-27T11:41:50.653Z,49.00
2018-06-27T11:42:50.602Z,42.80
2018-06-27T11:43:50.584Z,49.60
2018-06-27T11:44:50.591Z,44.00
2018-06-27T11:45:50.548Z,45.10
2018-06-27T11:46:50.546Z,43.10
2018-06-27T11:47:50.511Z,40.40
2018-06-27T11:48:50.479Z,38.90
2018-06-27T11:49:50.457Z,40.60
2018-06-27T11:50:50.433Z,40.70
2018-06-27T11:51:50.416Z,44.40
2018-06-27T11:52:50.395Z,39.90
2018-06-27T11:53:50.399Z,38.70
2018-06-27T11:54:50.359Z,36.90
2018-06-27T11:55:50.357Z,35.80
2018-06-27T11:56:50.341Z,38.30
2018-06-27T11:57:50.319Z,37.40
2018-06-27T11:58:50.273Z,36.00
2018-06-27T11:59:50.262Z,34.30
2018-06-27T12:00:50.265Z,37.00
2018-06-27T12:01:50.217Z,37.80
2018-06-27T12:02:50.225Z,39.40
2018-06-27T12:03:50.204Z,38.90
2018-06-27T12:04:50.174Z,34.50
2018-06-27T12:05:50.141Z,37.90
2018-06-27T12:06:50.151Z,31.70
2018-06-27T12:07:50.105Z,34.10
2018-06-27T12:08:50.085Z,30.70
2018-06-27T12:09:50.065Z,31.40
2018-06-27T12:10:50.049Z,33.00
2018-06-27T12:11:50.053Z,32.20
2018-06-27T12:12:50.018Z,29.40
2018-06-27T12:13:50.018Z,32.10
2018-06-27T12:14:50.004Z,32.20
2018-06-27T12:15:49.985Z,36.70
2018-06-27T12:16:49.968Z,32.30
2018-06-27T12:17:50.190Z,33.70
2018-06-27T12:18:49.911Z,32.50
2018-06-27T12:19:49.897Z,36.50
2018-06-27T12:20:49.874Z,33.00
2018-06-27T12:21:49.846Z,34.20
2018-06-27T12:22:49.830Z,37.90
2018-06-27T12:23:49.850Z,31.40
2018-06-27T12:24:49.791Z,36.90
2018-06-27T12:25:49.774Z,35.10
2018-06-27T12:26:49.781Z,34.40
2018-06-27T12:27:49.734Z,46.40
2018-06-27T12:28:49.732Z,38.50
2018-06-27T12:29:49.723Z,39.50
2018-06-27T12:30:49.685Z,39.60
2018-06-27T12:31:49.673Z,40.70
2018-06-27T12:32:49.669Z,41.50
2018-06-27T12:33:49.651Z,45.00
2018-06-27T12:34:49.622Z,37.50
2018-06-27T12:35:49.589Z,39.90
2018-06-27T12:36:49.571Z,37.50
2018-06-27T12:37:49.583Z,37.40
2018-06-27T12:38:49.568Z,38.80
2018-06-27T12:39:49.520Z,35.50
2018-06-27T12:40:49.506Z,45.00
2018-06-27T12:41:49.512Z,43.90
2018-06-27T12:42:49.492Z,44.80
2018-06-27T12:43:49.450Z,42.40
2018-06-27T12:44:49.425Z,44.50
2018-06-27T12:45:49.441Z,44.50
2018-06-27T12:46:49.422Z,46.40
2018-06-27T12:47:49.379Z,41.40
2018-06-27T12:48:49.364Z,47.60
2018-06-27T12:49:49.356Z,50.50
2018-06-27T12:50:49.325Z,47.70
2018-06-27T12:51:49.326Z,47.20